Time;durP1;ratioP1;P1;durP2;ratioP2;P2;SDS_P1;SDS_P2;PMS_P1;PMS_P2;Temp;Humidity;BMP_temperature;BMP_pressure;BME280_temperature;BME280_humidity;BME280_pressure;Samples;Min_cycle;Max_cycle;Signal;HPM_P1;HPM_P2
2022/09/16 00:01:14;;;;;;;8.77;1.50;;;11.90;99.90;;;;;;4996651;28;20043;-74
2022/09/16 00:04:00;;;;;;;4.85;1.40;;;12.00;99.90;;;;;;4989651;28;20132;-74
2022/09/16 00:06:45;;;;;;;9.57;1.55;;;12.00;99.90;;;;;;4999960;28;20517;-74
2022/09/16 00:09:31;;;;;;;7.28;1.55;;;12.00;99.90;;;;;;4998421;28;20042;-73
2022/09/16 00:12:17;;;;;;;7.85;1.45;;;12.00;99.90;;;;;;4990782;28;20409;-74
2022/09/16 00:15:04;;;;;;;6.75;1.33;;;12.00;99.90;;;;;;5000164;28;20033;-74
2022/09/16 00:17:50;;;;;;;9.27;1.23;;;12.00;99.90;;;;;;4993353;28;20050;-74
2022/09/16 00:20:41;;;;;;;5.25;1.40;;;12.10;99.90;;;;;;5010320;28;20594;-74
2022/09/16 00:23:26;;;;;;;4.03;1.25;;;12.10;99.90;;;;;;5001304;28;20045;-74
2022/09/16 00:26:13;;;;;;;5.28;1.35;;;12.20;99.90;;;;;;4993848;28;20053;-74
2022/09/16 00:28:59;;;;;;;5.72;1.30;;;12.10;99.90;;;;;;4996761;28;20042;-74
2022/09/16 00:31:44;;;;;;;6.30;1.20;;;12.20;99.90;;;;;;4999846;28;20129;-74
2022/09/16 00:34:30;;;;;;;7.47;1.33;;;12.20;99.90;;;;;;5000705;28;20046;-72
2022/09/16 00:37:17;;;;;;;5.95;1.20;;;12.30;99.90;;;;;;4994414;28;20081;-73
2022/09/16 00:40:03;;;;;;;5.63;1.30;;;12.20;99.90;;;;;;4999805;28;20041;-73
2022/09/16 00:42:49;;;;;;;7.47;1.33;;;12.20;99.90;;;;;;4995873;28;20064;-73
2022/09/16 00:45:35;;;;;;;4.65;1.20;;;12.20;99.90;;;;;;5000671;28;20487;-74
2022/09/16 00:48:24;;;;;;;6.40;1.20;;;12.20;99.90;;;;;;4993880;28;20050;-74
2022/09/16 00:51:12;;;;;;;3.58;1.08;;;12.20;99.90;;;;;;4995546;28;20038;-74
2022/09/16 00:54:03;;;;;;;3.50;0.88;;;12.20;99.90;;;;;;4995737;28;20041;-74
2022/09/16 00:56:53;;;;;;;6.35;1.20;;;12.30;99.90;;;;;;5016997;28;20065;-74
2022/09/16 00:59:44;;;;;;;7.57;1.35;;;12.30;99.90;;;;;;5014498;28;20054;-74
2022/09/16 01:02:30;;;;;;;6.78;1.55;;;12.30;99.90;;;;;;5000232;28;20045;-74
2022/09/16 01:05:21;;;;;;;5.05;1.10;;;12.30;99.90;;;;;;4991548;28;20046;-74
2022/09/16 01:08:07;;;;;;;6.75;1.20;;;12.30;99.90;;;;;;4990332;28;20078;-73
2022/09/16 01:10:53;;;;;;;3.92;0.85;;;12.40;99.90;;;;;;4994699;28;20042;-74
2022/09/16 01:13:40;;;;;;;2.70;0.80;;;12.40;99.90;;;;;;4995655;28;20038;-74
2022/09/16 01:16:39;;;;;;;7.10;1.30;;;12.40;99.90;;;;;;4991941;28;20058;-72
2022/09/16 01:19:49;;;;;;;9.48;1.10;;;12.40;99.90;;;;;;4997386;28;20050;-72
2022/09/16 01:22:57;;;;;;;5.05;1.10;;;12.40;99.90;;;;;;4995239;28;20038;-72
2022/09/16 01:25:52;;;;;;;3.53;0.88;;;12.40;99.90;;;;;;4993959;28;20141;-73
2022/09/16 01:29:14;;;;;;;5.72;1.10;;;12.40;99.90;;;;;;4996680;28;20525;-73
2022/09/16 01:32:15;;;;;;;4.72;1.08;;;12.40;99.90;;;;;;4995775;28;20061;-73
2022/09/16 01:35:19;;;;;;;4.28;0.82;;;12.30;99.90;;;;;;4990911;28;20513;-73
2022/09/16 01:38:15;;;;;;;5.25;0.93;;;12.30;99.90;;;;;;4990684;28;20047;-73
2022/09/16 01:41:19;;;;;;;6.55;1.27;;;12.30;99.90;;;;;;5000721;28;20069;-73
2022/09/16 01:44:10;;;;;;;3.88;0.98;;;12.20;99.90;;;;;;4996725;28;21014;-73
2022/09/16 01:47:20;;;;;;;6.60;1.17;;;12.20;99.90;;;;;;4998541;28;20125;-73
2022/09/16 01:50:35;;;;;;;5.78;1.13;;;12.30;99.90;;;;;;4976673;28;20049;-73
2022/09/16 01:53:31;;;;;;;4.30;0.98;;;12.30;99.90;;;;;;5000047;28;20136;-74
2022/09/16 01:56:41;;;;;;;4.53;0.90;;;12.30;99.90;;;;;;4991052;28;20107;-74
2022/09/16 01:59:34;;;;;;;3.75;1.00;;;12.30;99.90;;;;;;4994840;28;20092;-74
2022/09/16 02:02:30;;;;;;;6.85;1.23;;;12.30;99.90;;;;;;4993954;28;20042;-73
2022/09/16 02:05:25;;;;;;;6.20;1.33;;;12.30;99.90;;;;;;4990037;28;20033;-74
2022/09/16 02:08:16;;;;;;;6.32;1.00;;;12.30;99.90;;;;;;5001464;28;20050;-73
2022/09/16 02:11:06;;;;;;;4.75;1.10;;;12.20;99.90;;;;;;4992807;28;20053;-73
2022/09/16 02:14:28;;;;;;;6.40;1.30;;;12.20;99.90;;;;;;5002632;28;20108;-73
2022/09/16 02:17:17;;;;;;;5.18;1.05;;;12.20;99.90;;;;;;4993035;28;20524;-73
2022/09/16 02:20:13;;;;;;;4.20;1.08;;;12.20;99.90;;;;;;5002845;28;20130;-73
2022/09/16 02:23:08;;;;;;;5.90;1.10;;;12.20;99.90;;;;;;4999829;28;20052;-73
2022/09/16 02:25:55;;;;;;;3.70;1.08;;;12.10;99.90;;;;;;4998749;28;20191;-73
2022/09/16 02:28:43;;;;;;;4.97;0.88;;;12.10;99.90;;;;;;4998263;28;20053;-74
2022/09/16 02:31:34;;;;;;;4.35;1.08;;;12.10;99.90;;;;;;5009209;28;20433;-73
2022/09/16 02:34:28;;;;;;;4.45;0.90;;;12.10;99.90;;;;;;4999859;28;20461;-73
2022/09/16 02:37:18;;;;;;;5.55;1.20;;;12.00;99.90;;;;;;5001473;28;20057;-73
2022/09/16 02:40:12;;;;;;;7.10;1.20;;;12.00;99.90;;;;;;5001359;28;20141;-73
2022/09/16 02:42:58;;;;;;;4.63;1.30;;;11.90;99.90;;;;;;5006531;28;20045;-74
2022/09/16 02:46:20;;;;;;;5.47;1.15;;;11.90;99.90;;;;;;5001570;28;20080;-73
2022/09/16 02:49:34;;;;;;;6.30;1.25;;;11.90;99.90;;;;;;4979423;28;20113;-73
2022/09/16 02:52:32;;;;;;;6.53;1.33;;;11.90;99.90;;;;;;4993886;28;20061;-71
2022/09/16 02:55:37;;;;;;;6.10;1.20;;;11.80;99.90;;;;;;5000464;28;20057;-73
2022/09/16 02:58:23;;;;;;;9.90;1.30;;;11.80;99.90;;;;;;5002853;28;20042;-75
2022/09/16 03:01:12;;;;;;;4.85;1.40;;;11.70;99.90;;;;;;4998374;28;20072;-74
2022/09/16 03:03:58;;;;;;;4.45;1.20;;;11.80;99.90;;;;;;5000465;28;20046;-73
2022/09/16 03:06:45;;;;;;;4.35;1.10;;;11.80;99.90;;;;;;4999118;28;20491;-73
2022/09/16 03:09:34;;;;;;;5.95;0.90;;;11.80;99.90;;;;;;4995668;28;20054;-73
2022/09/16 03:12:46;;;;;;;5.43;1.08;;;11.80;99.90;;;;;;5001514;28;20052;-73
2022/09/16 03:15:43;;;;;;;5.45;1.20;;;11.80;99.90;;;;;;4997400;28;20053;-73
2022/09/16 03:18:55;;;;;;;10.20;1.40;;;11.80;99.90;;;;;;4994692;28;20046;-73
2022/09/16 03:21:57;;;;;;;7.85;1.10;;;11.90;99.90;;;;;;4995824;28;20042;-73
2022/09/16 03:24:57;;;;;;;4.78;1.17;;;11.90;99.90;;;;;;4995247;28;20050;-73
2022/09/16 03:28:00;;;;;;;3.45;0.90;;;12.00;99.90;;;;;;4995694;28;20058;-73
2022/09/16 03:31:09;;;;;;;10.60;1.10;;;12.00;99.90;;;;;;4997836;28;20998;-73
2022/09/16 03:34:18;;;;;;;7.63;1.10;;;12.00;99.90;;;;;;5002605;28;20051;-73
2022/09/16 03:37:07;;;;;;;6.60;1.10;;;12.00;99.90;;;;;;5003452;28;20053;-73
2022/09/16 03:40:01;;;;;;;6.32;1.20;;;12.00;99.90;;;;;;5005924;28;20042;-73
2022/09/16 03:42:47;;;;;;;6.57;1.15;;;12.00;99.90;;;;;;5015477;28;20129;-74
2022/09/16 03:45:33;;;;;;;8.35;1.40;;;12.00;99.90;;;;;;5000974;28;20545;-74
2022/09/16 03:48:19;;;;;;;7.78;1.30;;;12.00;99.90;;;;;;4999660;28;20058;-74
2022/09/16 03:51:05;;;;;;;6.45;1.15;;;12.00;99.90;;;;;;5004445;28;20046;-73
2022/09/16 03:53:51;;;;;;;5.78;1.20;;;11.90;99.90;;;;;;5000923;28;20457;-73
2022/09/16 03:56:37;;;;;;;6.50;1.00;;;11.90;99.90;;;;;;4998956;28;20042;-73
2022/09/16 03:59:23;;;;;;;11.23;1.30;;;11.90;99.90;;;;;;4996159;28;20042;-73
2022/09/16 04:02:09;;;;;;;6.10;1.23;;;11.90;99.90;;;;;;5003946;28;22207;-73
2022/09/16 04:04:55;;;;;;;5.85;1.08;;;11.90;99.90;;;;;;4999806;28;20045;-73
2022/09/16 04:07:41;;;;;;;7.35;1.30;;;11.90;99.90;;;;;;4989743;28;20048;-73
2022/09/16 04:10:27;;;;;;;6.38;1.35;;;11.90;99.90;;;;;;4981121;28;20053;-73
2022/09/16 04:13:12;;;;;;;7.30;1.38;;;11.80;99.90;;;;;;4997297;28;20046;-73
2022/09/16 04:15:59;;;;;;;8.98;1.10;;;11.80;99.90;;;;;;4995319;28;20054;-73
2022/09/16 04:18:45;;;;;;;3.88;1.00;;;11.80;99.90;;;;;;4993565;28;20061;-73
2022/09/16 04:21:31;;;;;;;5.32;0.90;;;11.70;99.90;;;;;;4998178;28;20403;-73
2022/09/16 04:24:17;;;;;;;6.00;1.30;;;11.70;99.90;;;;;;5003188;28;20084;-74
2022/09/16 04:27:03;;;;;;;7.60;1.10;;;11.70;99.90;;;;;;4993685;28;20398;-75
2022/09/16 04:29:49;;;;;;;6.60;1.20;;;11.60;99.90;;;;;;5004674;28;20046;-74
2022/09/16 04:32:35;;;;;;;7.85;1.48;;;11.60;99.90;;;;;;4996281;28;20074;-74
2022/09/16 04:35:23;;;;;;;7.13;1.10;;;11.60;99.90;;;;;;4997816;28;20038;-74
2022/09/16 04:38:10;;;;;;;4.15;1.15;;;11.60;99.90;;;;;;4990790;28;20054;-73
2022/09/16 04:41:04;;;;;;;5.75;1.33;;;11.50;99.90;;;;;;5006785;28;20050;-73
2022/09/16 04:43:52;;;;;;;5.93;1.17;;;11.60;99.90;;;;;;4993846;28;20057;-73
2022/09/16 04:46:38;;;;;;;7.68;1.65;;;11.60;99.90;;;;;;4989298;28;20078;-73
2022/09/16 04:49:24;;;;;;;6.22;1.35;;;11.60;99.90;;;;;;4991593;28;20058;-73
2022/09/16 04:52:10;;;;;;;7.20;1.52;;;11.60;99.90;;;;;;5000302;28;20134;-73
2022/09/16 04:54:56;;;;;;;6.43;1.40;;;11.60;99.90;;;;;;4999336;28;20601;-73
2022/09/16 04:57:41;;;;;;;6.03;1.25;;;11.50;99.90;;;;;;4999208;28;20041;-73
2022/09/16 05:00:27;;;;;;;10.73;1.50;;;11.50;99.90;;;;;;4998295;28;20138;-73
2022/09/16 05:03:13;;;;;;;7.00;1.50;;;11.50;99.90;;;;;;4999042;28;20050;-74
2022/09/16 05:06:08;;;;;;;8.95;1.67;;;11.50;99.90;;;;;;4999553;28;20060;-74
2022/09/16 05:08:55;;;;;;;4.60;1.27;;;11.50;99.90;;;;;;4997849;28;20057;-73
2022/09/16 05:11:41;;;;;;;5.90;1.40;;;11.40;99.90;;;;;;5001105;28;20046;-73
2022/09/16 05:14:27;;;;;;;6.20;1.10;;;11.40;99.90;;;;;;4999904;28;20093;-73
2022/09/16 05:17:13;;;;;;;6.55;1.60;;;11.40;99.90;;;;;;5002500;28;20524;-74
2022/09/16 05:19:58;;;;;;;7.38;1.60;;;11.30;99.90;;;;;;5003244;28;20104;-73
2022/09/16 05:22:47;;;;;;;7.03;1.40;;;11.30;99.90;;;;;;5003198;28;20473;-73
2022/09/16 05:25:33;;;;;;;6.15;1.50;;;11.20;99.90;;;;;;5001034;28;20048;-73
2022/09/16 05:28:19;;;;;;;7.60;1.35;;;11.20;99.90;;;;;;4996814;28;20555;-73
2022/09/16 05:31:09;;;;;;;7.43;1.60;;;11.10;99.90;;;;;;4996919;28;20042;-73
2022/09/16 05:33:59;;;;;;;9.95;1.60;;;11.10;99.90;;;;;;4995623;28;20053;-74
2022/09/16 05:36:46;;;;;;;7.45;1.73;;;11.10;99.90;;;;;;5019884;28;20049;-74
2022/09/16 05:39:32;;;;;;;6.88;1.60;;;11.10;99.90;;;;;;5002394;28;20568;-74
2022/09/16 05:42:18;;;;;;;14.57;2.55;;;11.00;99.90;;;;;;5000683;28;20088;-74
2022/09/16 05:45:05;;;;;;;6.22;1.63;;;11.00;99.90;;;;;;4998369;28;20046;-73
2022/09/16 05:47:51;;;;;;;8.25;1.45;;;10.90;99.90;;;;;;5002151;28;21748;-73
2022/09/16 05:50:37;;;;;;;10.10;1.75;;;10.90;99.90;;;;;;5008773;28;20053;-73
2022/09/16 05:53:24;;;;;;;6.22;1.58;;;10.90;99.90;;;;;;5017007;28;20042;-74
2022/09/16 05:56:13;;;;;;;11.23;1.80;;;10.90;99.90;;;;;;5003902;28;20061;-74
2022/09/16 05:58:59;;;;;;;7.18;1.60;;;10.90;99.90;;;;;;5014345;28;20053;-73
2022/09/16 06:01:45;;;;;;;8.85;1.67;;;11.00;99.90;;;;;;5009580;28;20057;-73
2022/09/16 06:04:31;;;;;;;8.57;1.83;;;11.10;99.90;;;;;;5000507;28;20074;-74
2022/09/16 06:07:17;;;;;;;12.52;2.00;;;11.10;99.90;;;;;;4993634;28;20111;-74
2022/09/16 06:10:03;;;;;;;8.05;1.63;;;11.20;99.90;;;;;;5005547;28;20050;-74
2022/09/16 06:12:49;;;;;;;10.80;2.20;;;11.30;99.90;;;;;;5013700;28;20440;-73
2022/09/16 06:15:35;;;;;;;12.05;1.60;;;11.30;99.90;;;;;;4993825;28;20045;-73
2022/09/16 06:18:23;;;;;;;9.55;1.38;;;11.40;99.90;;;;;;4998186;28;20073;-73
2022/09/16 06:21:10;;;;;;;12.23;1.60;;;11.50;99.90;;;;;;4999250;28;20129;-73
2022/09/16 06:23:56;;;;;;;6.90;1.45;;;11.60;99.90;;;;;;4996134;28;20046;-73
2022/09/16 06:26:44;;;;;;;10.05;1.77;;;11.60;99.90;;;;;;4998369;28;20145;-73
2022/09/16 06:29:30;;;;;;;11.95;1.58;;;11.70;99.90;;;;;;4991352;28;20054;-73
2022/09/16 06:32:16;;;;;;;8.82;1.75;;;11.80;99.90;;;;;;4995912;28;20046;-73
2022/09/16 06:35:02;;;;;;;12.60;1.88;;;11.80;99.90;;;;;;4995918;28;20050;-73
2022/09/16 06:37:48;;;;;;;9.52;1.70;;;11.80;99.90;;;;;;5000638;28;20660;-73
2022/09/16 06:40:34;;;;;;;7.60;1.45;;;11.80;99.90;;;;;;4996852;28;20046;-73
2022/09/16 06:43:20;;;;;;;12.15;1.55;;;11.70;99.90;;;;;;4985662;28;20054;-72
2022/09/16 06:46:12;;;;;;;14.15;1.80;;;11.70;99.90;;;;;;4998150;28;20455;-72
2022/09/16 06:48:58;;;;;;;12.40;1.73;;;11.70;99.90;;;;;;4995387;28;20050;-73
2022/09/16 06:51:44;;;;;;;10.20;1.52;;;11.70;99.90;;;;;;4995266;28;20429;-73
2022/09/16 06:54:30;;;;;;;11.70;2.03;;;11.70;99.90;;;;;;4993253;28;20050;-73
2022/09/16 06:57:18;;;;;;;7.45;1.40;;;11.80;99.90;;;;;;4995601;28;20057;-73
2022/09/16 07:00:05;;;;;;;12.38;1.60;;;11.80;99.90;;;;;;4999111;28;20048;-73
2022/09/16 07:02:51;;;;;;;15.43;1.85;;;11.90;99.90;;;;;;4996624;28;21365;-73
2022/09/16 07:05:37;;;;;;;11.32;2.10;;;12.00;99.90;;;;;;4997527;28;20046;-73
2022/09/16 07:08:23;;;;;;;9.55;1.70;;;12.10;99.90;;;;;;5002678;28;20682;-73
2022/09/16 07:11:17;;;;;;;10.88;1.67;;;12.20;99.90;;;;;;4999486;28;20084;-74
2022/09/16 07:14:03;;;;;;;8.05;1.70;;;12.30;99.90;;;;;;5002438;28;20137;-71
2022/09/16 07:16:49;;;;;;;7.82;1.60;;;12.40;99.90;;;;;;4991833;28;20058;-72
2022/09/16 07:19:36;;;;;;;10.13;1.75;;;12.40;99.90;;;;;;4997094;28;20073;-72
2022/09/16 07:22:22;;;;;;;11.90;1.80;;;12.50;99.90;;;;;;5002720;28;20065;-73
2022/09/16 07:25:08;;;;;;;11.27;1.75;;;12.50;99.90;;;;;;5000263;28;20077;-72
2022/09/16 07:27:54;;;;;;;8.05;1.58;;;12.60;99.90;;;;;;4995910;28;20054;-74
2022/09/16 07:30:40;;;;;;;10.30;1.83;;;12.70;99.90;;;;;;4998704;28;20050;-73
2022/09/16 07:33:27;;;;;;;10.13;1.70;;;12.80;99.90;;;;;;4998524;28;20069;-73
2022/09/16 07:36:16;;;;;;;10.98;1.90;;;12.80;99.90;;;;;;4996861;28;20050;-72
2022/09/16 07:39:03;;;;;;;8.65;1.70;;;12.90;99.90;;;;;;4999777;28;20533;-72
2022/09/16 07:41:49;;;;;;;11.65;1.80;;;13.00;99.90;;;;;;4999009;28;20627;-73
2022/09/16 07:44:34;;;;;;;9.15;1.70;;;13.10;99.90;;;;;;5000106;28;20112;-72
2022/09/16 07:47:20;;;;;;;14.95;2.40;;;13.20;99.90;;;;;;4998060;28;20391;-73
2022/09/16 07:50:07;;;;;;;8.98;1.67;;;13.30;99.90;;;;;;4999518;28;20082;-73
2022/09/16 07:52:54;;;;;;;13.73;2.28;;;13.40;99.90;;;;;;5000200;28;20050;-73
2022/09/16 07:55:40;;;;;;;9.73;2.03;;;13.40;99.90;;;;;;5004666;28;20049;-79
2022/09/16 07:58:26;;;;;;;14.80;2.28;;;13.50;99.90;;;;;;4989849;28;20430;-75
2022/09/16 08:01:14;;;;;;;15.40;1.83;;;13.60;99.90;;;;;;4987568;28;20506;-72
2022/09/16 08:04:00;;;;;;;58.08;4.47;;;13.70;99.90;;;;;;4993439;28;20129;-71
2022/09/16 08:06:46;;;;;;;28.08;3.10;;;13.70;99.90;;;;;;4981401;28;20053;-71
2022/09/16 08:09:32;;;;;;;12.27;1.55;;;13.80;99.90;;;;;;4999965;28;20042;-71
2022/09/16 08:12:18;;;;;;;10.25;1.58;;;13.90;99.90;;;;;;4994012;28;20041;-70
2022/09/16 08:15:05;;;;;;;9.77;1.80;;;14.00;99.90;;;;;;4999361;28;20069;-69
2022/09/16 08:17:51;;;;;;;10.85;2.15;;;14.00;99.90;;;;;;4999989;28;20053;-71
2022/09/16 08:20:37;;;;;;;11.68;1.85;;;14.10;99.90;;;;;;4994700;28;20449;-71
2022/09/16 08:23:23;;;;;;;11.02;1.60;;;14.20;99.90;;;;;;4999764;28;20045;-71
2022/09/16 08:26:11;;;;;;;11.90;1.98;;;14.30;99.90;;;;;;4995242;28;20054;-71
2022/09/16 08:28:56;;;;;;;13.93;2.20;;;14.30;99.90;;;;;;4992455;28;20046;-70
2022/09/16 08:31:42;;;;;;;10.00;1.65;;;14.50;99.90;;;;;;4993119;28;20046;-73
2022/09/16 08:34:28;;;;;;;10.27;2.03;;;14.50;99.90;;;;;;4997850;28;20038;-73
2022/09/16 08:37:14;;;;;;;9.32;1.60;;;14.60;99.90;;;;;;4998611;28;20093;-73
2022/09/16 08:40:01;;;;;;;13.07;2.00;;;14.70;99.90;;;;;;4994551;28;20059;-71
2022/09/16 08:42:58;;;;;;;11.18;1.92;;;14.90;99.90;;;;;;4984790;28;20046;-74
2022/09/16 08:45:53;;;;;;;12.30;1.90;;;15.00;99.90;;;;;;4997239;28;20165;-72
2022/09/16 08:49:15;;;;;;;8.52;1.92;;;15.20;99.90;;;;;;4995581;28;21087;-73
2022/09/16 08:52:13;;;;;;;11.45;1.70;;;15.20;99.90;;;;;;4997740;28;20053;-73
2022/09/16 08:55:20;;;;;;;14.63;2.03;;;15.30;99.90;;;;;;5001335;28;20054;-71
2022/09/16 08:58:16;;;;;;;12.65;2.17;;;15.40;99.90;;;;;;4994833;28;20129;-72
2022/09/16 09:01:11;;;;;;;11.73;2.30;;;15.50;99.90;;;;;;4999325;28;20041;-73
2022/09/16 09:03:57;;;;;;;10.50;1.98;;;15.50;99.90;;;;;;4995550;28;20057;-70
2022/09/16 09:07:05;;;;;;;13.65;2.13;;;15.50;99.90;;;;;;4999054;28;20048;-72
2022/09/16 09:10:15;;;;;;;13.18;2.38;;;15.60;99.90;;;;;;4990675;28;20053;-73
2022/09/16 09:13:46;;;;;;;14.50;2.38;;;15.50;99.90;;;;;;5000445;28;20244;-72
2022/09/16 09:16:41;;;;;;;15.38;1.95;;;15.50;99.90;;;;;;4908396;29;20488;-73
2022/09/16 09:20:05;;;;;;;12.60;2.10;;;15.40;99.90;;;;;;4906303;29;20418;-73
2022/09/16 09:23:29;;;;;;;11.93;2.42;;;15.50;99.90;;;;;;4998911;28;20042;-73
2022/09/16 09:26:20;;;;;;;11.05;2.58;;;15.60;99.90;;;;;;5016008;28;20076;-73
2022/09/16 09:31:54;;;;;;;11.70;2.35;;;15.70;99.90;;;;;;5131292;23;20504;-72
2022/09/16 09:34:48;;;;;;;9.75;2.20;;;15.80;99.90;;;;;;5004860;28;20059;-72
2022/09/16 09:38:02;;;;;;;9.52;2.33;;;15.90;99.90;;;;;;5002700;28;20463;-72
2022/09/16 09:40:54;;;;;;;9.70;2.17;;;16.00;99.90;;;;;;4991604;28;20068;-72
2022/09/16 09:43:51;;;;;;;11.65;2.20;;;16.00;99.90;;;;;;4983222;28;20192;-71
2022/09/16 09:46:47;;;;;;;8.40;1.73;;;16.10;99.90;;;;;;4980974;28;20133;-72
2022/09/16 09:49:36;;;;;;;7.35;1.65;;;16.20;99.90;;;;;;4999932;28;20065;-72
2022/09/16 09:52:44;;;;;;;11.43;1.80;;;16.40;99.90;;;;;;4984400;28;20042;-72
2022/09/16 09:55:34;;;;;;;8.93;1.63;;;16.40;99.90;;;;;;4983327;28;20065;-72
2022/09/16 09:58:42;;;;;;;7.78;1.55;;;16.60;99.90;;;;;;4985526;28;20062;-72
2022/09/16 10:01:28;;;;;;;10.40;2.00;;;16.70;99.90;;;;;;4980641;28;20445;-72
2022/09/16 10:04:15;;;;;;;13.07;2.00;;;16.80;99.10;;;;;;4972465;28;20084;-72
2022/09/16 10:07:01;;;;;;;9.68;1.85;;;16.80;98.20;;;;;;4986122;28;20142;-72
2022/09/16 10:09:53;;;;;;;8.35;1.85;;;17.00;99.40;;;;;;4985468;28;20042;-73
2022/09/16 10:12:38;;;;;;;7.10;1.80;;;17.10;97.90;;;;;;4983804;28;20515;-72
2022/09/16 10:15:29;;;;;;;6.53;1.55;;;17.10;97.30;;;;;;4977427;28;20038;-72
2022/09/16 10:18:28;;;;;;;9.68;1.88;;;17.20;96.80;;;;;;4987076;28;20041;-72
2022/09/16 10:21:15;;;;;;;8.57;1.73;;;17.30;96.50;;;;;;4985534;28;20034;-71
2022/09/16 10:24:01;;;;;;;10.88;1.75;;;17.50;96.90;;;;;;4990710;28;20046;-72
2022/09/16 10:26:47;;;;;;;9.20;2.00;;;17.50;95.50;;;;;;5008462;28;20050;-71
2022/09/16 10:29:33;;;;;;;9.93;1.77;;;17.40;96.80;;;;;;4988411;28;20053;-71
2022/09/16 10:32:19;;;;;;;8.85;1.83;;;17.40;95.30;;;;;;4993970;28;20046;-71
2022/09/16 10:35:07;;;;;;;10.77;2.10;;;17.30;94.60;;;;;;4994644;28;20056;-72
2022/09/16 10:38:00;;;;;;;11.45;1.85;;;17.10;96.50;;;;;;4984210;28;20038;-71
2022/09/16 10:40:56;;;;;;;7.55;1.98;;;17.10;97.70;;;;;;4989543;28;20087;-72
2022/09/16 10:44:02;;;;;;;10.40;1.85;;;17.30;98.50;;;;;;5005871;28;20050;-72
2022/09/16 10:46:53;;;;;;;11.00;2.10;;;17.60;98.80;;;;;;5005946;28;20415;-72
2022/09/16 10:49:46;;;;;;;12.48;1.95;;;18.00;96.20;;;;;;4992555;28;20413;-71
2022/09/16 10:52:46;;;;;;;;;;;18.30;95.30;;;;;;4993579;28;20049;-72
2022/09/16 10:55:37;;;;;;;11.98;2.05;;;18.60;94.80;;;;;;4992357;28;19922;-72
2022/09/16 10:58:23;;;;;;;9.90;2.40;;;18.90;94.30;;;;;;4970247;28;20046;-70
2022/09/16 11:01:12;;;;;;;11.63;2.28;;;19.20;92.40;;;;;;4984398;28;20125;-70
2022/09/16 11:04:16;;;;;;;12.10;2.03;;;19.20;92.50;;;;;;4973130;28;20046;-68
2022/09/16 11:07:02;;;;;;;9.60;1.73;;;19.00;92.30;;;;;;4989446;28;20050;-73
2022/09/16 11:10:19;;;;;;;12.90;2.75;;;18.70;92.60;;;;;;4986372;28;20041;-73
2022/09/16 11:13:18;;;;;;;9.45;1.90;;;18.40;93.50;;;;;;4988367;28;20050;-73
2022/09/16 11:16:38;;;;;;;9.70;2.17;;;18.00;94.50;;;;;;4973502;28;20168;-73
2022/09/16 11:19:45;;;;;;;7.20;1.75;;;18.10;96.00;;;;;;4974210;28;20056;-73
2022/09/16 11:23:05;;;;;;;8.48;1.50;;;18.40;96.00;;;;;;4989647;28;20566;-71
2022/09/16 11:25:59;;;;;;;8.45;1.70;;;18.70;92.20;;;;;;4975463;28;20070;-71
2022/09/16 11:28:53;;;;;;;15.07;1.73;;;19.10;90.30;;;;;;4986988;28;20478;-71
2022/09/16 11:32:11;;;;;;;7.32;1.60;;;19.00;88.50;;;;;;4987561;28;20457;-71
2022/09/16 11:35:34;;;;;;;9.20;1.58;;;19.00;85.40;;;;;;4987567;28;20143;-71
2022/09/16 11:38:38;;;;;;;7.80;1.85;;;19.20;87.70;;;;;;4980447;28;20057;-71
2022/09/16 11:41:35;;;;;;;8.68;1.90;;;19.70;87.70;;;;;;4982036;28;20041;-72
2022/09/16 11:44:24;;;;;;;11.38;1.77;;;20.20;90.00;;;;;;4971124;28;20073;-71
2022/09/16 11:47:47;;;;;;;8.40;2.00;;;20.60;90.10;;;;;;4982840;28;20054;-72
2022/09/16 11:51:00;;;;;;;12.90;1.67;;;21.00;88.20;;;;;;4971861;28;20212;-72
2022/09/16 11:54:13;;;;;;;7.60;1.85;;;20.90;83.80;;;;;;4954409;28;20042;-72
2022/09/16 11:57:03;;;;;;;10.20;1.85;;;20.70;84.30;;;;;;4985185;28;20120;-72
2022/09/16 11:59:57;;;;;;;10.38;2.13;;;20.30;83.40;;;;;;4986891;28;20140;-72
2022/09/16 12:03:10;;;;;;;9.75;1.48;;;20.00;85.20;;;;;;4986019;28;20054;-73
2022/09/16 12:06:03;;;;;;;;;;;19.80;80.80;;;;;;4985441;28;20069;-72
2022/09/16 12:08:53;;;;;;;10.88;1.88;;;19.60;79.30;;;;;;4986471;28;20020;-73
2022/09/16 12:11:57;;;;;;;5.95;1.50;;;19.60;82.80;;;;;;4985382;28;20073;-72
2022/09/16 12:14:49;;;;;;;6.75;1.50;;;19.90;84.60;;;;;;4983734;28;20042;-73
2022/09/16 12:17:41;;;;;;;8.60;1.67;;;20.10;84.20;;;;;;4984376;28;20046;-75
2022/09/16 12:20:42;;;;;;;3.35;1.20;;;20.50;85.00;;;;;;4988576;28;20558;-76
2022/09/16 12:23:33;;;;;;;28.80;3.00;;;20.70;81.30;;;;;;4986155;28;20042;-72
2022/09/16 12:26:49;;;;;;;8.27;1.60;;;20.30;82.40;;;;;;4984549;28;20049;-73
2022/09/16 12:29:55;;;;;;;6.18;0.95;;;19.40;87.00;;;;;;4970766;28;20493;-72
2022/09/16 12:33:09;;;;;;;4.50;1.25;;;18.50;92.80;;;;;;4987438;28;20049;-73
2022/09/16 12:36:04;;;;;;;2.85;0.90;;;17.60;96.70;;;;;;4993154;28;20148;-73
2022/09/16 12:38:50;;;;;;;6.65;0.90;;;17.10;99.90;;;;;;4987588;28;20100;-73
2022/09/16 12:41:57;;;;;;;6.13;1.40;;;16.80;99.90;;;;;;4987471;28;20046;-73
2022/09/16 12:45:18;;;;;;;4.07;1.23;;;16.60;99.90;;;;;;4986519;28;20038;-73
2022/09/16 12:48:51;;;;;;;9.95;1.30;;;16.90;99.90;;;;;;4986896;28;20049;-73
2022/09/16 12:52:16;;;;;;;9.40;1.70;;;17.60;99.90;;;;;;5002287;28;20127;-73
2022/09/16 12:55:33;;;;;;;8.43;1.92;;;18.30;99.90;;;;;;4983382;28;20077;-73
2022/09/16 12:58:54;;;;;;;8.55;1.90;;;18.80;99.90;;;;;;4998589;28;20053;-73
2022/09/16 13:02:05;;;;;;;11.95;1.83;;;19.20;99.90;;;;;;4974819;28;20074;-73
2022/09/16 13:04:53;;;;;;;8.82;1.80;;;19.40;99.90;;;;;;4998309;28;20487;-73
2022/09/16 13:07:40;;;;;;;7.68;1.73;;;19.30;99.90;;;;;;4981908;28;20742;-74
2022/09/16 13:10:34;;;;;;;30.60;9.23;;;19.10;99.90;;;;;;4987201;28;20065;-74
2022/09/16 13:13:34;;;;;;;23.05;6.50;;;19.00;98.80;;;;;;4992132;28;20046;-74
2022/09/16 13:16:54;;;;;;;11.00;2.20;;;19.30;99.90;;;;;;4980935;28;20049;-73
2022/09/16 13:19:40;;;;;;;9.05;2.00;;;19.90;98.00;;;;;;4983635;28;20422;-70
2022/09/16 13:22:32;;;;;;;10.25;1.83;;;20.00;97.30;;;;;;4980392;28;20505;-71
2022/09/16 13:25:30;;;;;;;13.87;2.00;;;20.30;98.00;;;;;;4982298;28;20049;-71
2022/09/16 13:28:22;;;;;;;11.45;1.80;;;20.60;95.40;;;;;;5005739;28;20784;-71
2022/09/16 13:31:15;;;;;;;11.23;2.30;;;20.80;94.40;;;;;;4981284;28;20064;-72
2022/09/16 13:34:15;;;;;;;11.10;2.08;;;20.90;94.20;;;;;;4984015;28;20359;-71
2022/09/16 13:37:00;;;;;;;7.82;2.40;;;20.70;91.80;;;;;;4979655;28;20517;-70
2022/09/16 13:39:47;;;;;;;14.55;2.45;;;20.30;91.90;;;;;;4982005;28;20041;-71
2022/09/16 13:42:32;;;;;;;15.70;2.70;;;19.90;91.40;;;;;;5014732;28;20129;-71
2022/09/16 13:45:36;;;;;;;12.00;2.40;;;19.70;91.20;;;;;;4982662;28;20525;-73
2022/09/16 13:48:25;;;;;;;13.52;2.45;;;19.70;91.40;;;;;;4990167;28;20119;-73
2022/09/16 13:51:20;;;;;;;11.75;2.63;;;19.80;89.40;;;;;;4999032;28;20057;-74
2022/09/16 13:54:19;;;;;;;14.60;2.83;;;19.80;90.50;;;;;;4979494;28;20065;-74
2022/09/16 13:57:24;;;;;;;18.75;3.17;;;19.70;90.60;;;;;;4982505;28;20046;-74
2022/09/16 14:00:44;;;;;;;13.35;3.00;;;19.70;91.30;;;;;;4985733;28;20061;-73
2022/09/16 14:03:54;;;;;;;16.08;2.88;;;19.90;92.60;;;;;;4955794;28;20066;-73
2022/09/16 14:07:10;;;;;;;13.00;2.85;;;20.10;91.10;;;;;;5002866;28;20046;-73
2022/09/16 14:10:06;;;;;;;13.18;2.47;;;19.90;92.00;;;;;;4986319;28;20045;-73
2022/09/16 14:13:03;;;;;;;15.30;2.90;;;19.30;94.20;;;;;;4983627;28;20104;-73
2022/09/16 14:15:52;;;;;;;15.50;2.80;;;18.40;98.20;;;;;;4985652;28;20095;-72
2022/09/16 14:18:45;;;;;;;16.77;3.05;;;17.90;99.90;;;;;;5004202;28;20046;-73
2022/09/16 14:21:31;;;;;;;10.23;2.47;;;17.50;99.90;;;;;;4987254;28;20550;-73
2022/09/16 14:24:18;;;;;;;9.52;2.22;;;17.30;99.90;;;;;;4986314;28;20133;-73
2022/09/16 14:27:16;;;;;;;12.05;2.35;;;17.10;99.90;;;;;;4993968;28;20045;-74
2022/09/16 14:30:14;;;;;;;9.02;1.95;;;16.70;99.90;;;;;;4995789;28;20148;-74
2022/09/16 14:33:01;;;;;;;10.15;1.98;;;16.50;99.90;;;;;;4987741;28;20052;-73
2022/09/16 14:35:48;;;;;;;11.38;2.42;;;16.40;99.90;;;;;;4982832;28;20054;-73
2022/09/16 14:38:45;;;;;;;8.98;1.95;;;16.20;99.90;;;;;;4986103;28;20100;-74
2022/09/16 14:41:36;;;;;;;10.48;2.38;;;16.20;99.90;;;;;;4977644;28;20046;-73
2022/09/16 14:44:46;;;;;;;10.35;1.90;;;16.20;99.90;;;;;;4987121;28;20100;-74
2022/09/16 14:47:38;;;;;;;11.32;2.55;;;16.10;99.90;;;;;;4984998;28;20069;-74
2022/09/16 14:50:29;;;;;;;13.30;2.50;;;16.10;99.90;;;;;;4984862;28;20137;-73
2022/09/16 14:53:30;;;;;;;10.90;2.38;;;16.10;99.90;;;;;;4989657;28;20569;-74
2022/09/16 14:56:19;;;;;;;12.85;2.58;;;16.20;99.90;;;;;;4986842;28;20045;-73
2022/09/16 14:59:08;;;;;;;19.33;2.75;;;16.40;99.90;;;;;;4981751;28;20050;-74
2022/09/16 15:01:58;;;;;;;10.13;2.50;;;16.50;99.90;;;;;;4984878;28;20493;-74